Time;durP1;ratioP1;P1;durP2;ratioP2;P2;SDS_P1;SDS_P2;PMS_P1;PMS_P2;Temp;Humidity;BMP_temperature;BMP_pressure;BME280_temperature;BME280_humidity;BME280_pressure;Samples;Min_cycle;Max_cycle;Signal;HPM_P1;HPM_P2
2021/03/24 00:00:26;;;;;;;26.85;17.55;;;11.40;52.00;;;;;;2066940;28;20042;-59
2021/03/24 00:01:48;;;;;;;26.40;17.77;;;11.40;52.40;;;;;;2062521;28;20030;-60
2021/03/24 00:03:11;;;;;;;26.77;16.92;;;11.40;52.10;;;;;;2065278;28;20077;-58
2021/03/24 00:04:32;;;;;;;23.85;17.33;;;11.40;52.10;;;;;;2065924;28;20030;-59
2021/03/24 00:05:53;;;;;;;26.00;18.05;;;11.40;52.10;;;;;;2064773;28;20121;-59
2021/03/24 00:07:14;;;;;;;27.02;17.55;;;11.40;52.20;;;;;;2063564;28;20106;-61
2021/03/24 00:08:35;;;;;;;24.67;17.95;;;11.40;52.70;;;;;;2065874;28;20505;-58
2021/03/24 00:09:56;;;;;;;26.58;18.30;;;11.40;52.20;;;;;;2066067;28;20042;-59
2021/03/24 00:11:17;;;;;;;27.85;18.52;;;11.30;52.10;;;;;;2056611;28;20101;-60
2021/03/24 00:12:39;;;;;;;26.02;18.30;;;11.40;52.20;;;;;;2064136;28;20084;-59
2021/03/24 00:14:00;;;;;;;23.98;17.45;;;11.30;52.10;;;;;;2070604;28;20186;-59
2021/03/24 00:15:22;;;;;;;26.20;18.40;;;11.30;52.10;;;;;;2066996;28;20026;-61
2021/03/24 00:16:43;;;;;;;25.67;16.63;;;11.30;52.20;;;;;;2059732;28;20062;-60
2021/03/24 00:18:06;;;;;;;28.55;17.60;;;11.30;52.20;;;;;;2064086;28;20034;-59
2021/03/24 00:19:27;;;;;;;25.23;16.85;;;11.30;52.20;;;;;;2059540;28;20035;-59
2021/03/24 00:20:48;;;;;;;24.48;17.40;;;11.30;52.20;;;;;;2057076;28;20418;-60
2021/03/24 00:22:09;;;;;;;25.80;17.60;;;11.30;52.20;;;;;;2064408;28;20046;-59
2021/03/24 00:23:30;;;;;;;27.45;17.08;;;11.30;52.10;;;;;;2064336;28;20038;-60
2021/03/24 00:24:51;;;;;;;25.23;16.63;;;11.30;52.20;;;;;;2062226;28;20034;-60
2021/03/24 00:26:12;;;;;;;24.98;16.95;;;11.30;52.10;;;;;;2065096;28;20066;-59
2021/03/24 00:27:33;;;;;;;25.20;17.83;;;11.30;52.10;;;;;;2061637;28;20480;-59
2021/03/24 00:28:53;;;;;;;26.88;17.88;;;11.30;52.70;;;;;;2065559;28;20041;-60
2021/03/24 00:30:21;;;;;;;26.95;18.10;;;11.30;52.20;;;;;;2063549;28;20078;-59
2021/03/24 00:31:42;;;;;;;27.77;19.20;;;11.20;52.30;;;;;;2062528;28;20023;-59
2021/03/24 00:33:04;;;;;;;28.00;18.27;;;11.30;52.20;;;;;;2064685;28;20035;-59
2021/03/24 00:34:25;;;;;;;27.02;18.20;;;11.30;52.30;;;;;;2062098;28;20026;-61
2021/03/24 00:35:48;;;;;;;26.77;18.25;;;11.20;52.30;;;;;;2065827;28;20046;-60
2021/03/24 00:37:09;;;;;;;23.58;17.95;;;11.20;52.30;;;;;;2056099;28;20386;-59
2021/03/24 00:38:30;;;;;;;25.63;17.27;;;11.20;52.20;;;;;;2061795;28;20050;-60
2021/03/24 00:39:51;;;;;;;28.45;18.98;;;11.20;52.30;;;;;;2064057;28;20436;-60
2021/03/24 00:41:12;;;;;;;25.88;17.75;;;11.20;52.30;;;;;;2063910;28;20481;-59
2021/03/24 00:42:33;;;;;;;26.25;18.15;;;11.20;52.40;;;;;;2065653;28;20595;-60
2021/03/24 00:43:54;;;;;;;29.00;18.83;;;11.10;52.40;;;;;;2064321;28;20065;-59
2021/03/24 00:45:15;;;;;;;28.63;19.08;;;11.20;52.50;;;;;;2066115;28;20657;-58
2021/03/24 00:46:36;;;;;;;26.45;17.73;;;11.10;52.50;;;;;;2064850;28;20053;-59
2021/03/24 00:47:57;;;;;;;25.63;18.50;;;11.10;52.50;;;;;;2048643;29;20023;-58
2021/03/24 00:49:18;;;;;;;23.63;17.70;;;11.10;52.40;;;;;;2060344;28;20089;-59
2021/03/24 00:50:39;;;;;;;28.35;19.40;;;11.10;52.50;;;;;;2055038;28;20042;-58
2021/03/24 00:52:00;;;;;;;28.25;18.55;;;11.10;52.50;;;;;;2062565;28;20045;-60
2021/03/24 00:53:21;;;;;;;30.60;20.13;;;11.10;52.50;;;;;;2060013;28;20129;-60
2021/03/24 00:54:42;;;;;;;25.33;17.98;;;11.10;52.60;;;;;;2062949;28;20366;-61
2021/03/24 00:56:03;;;;;;;25.08;17.55;;;11.00;52.50;;;;;;2065931;28;20118;-59
2021/03/24 00:57:23;;;;;;;28.75;18.83;;;11.00;52.50;;;;;;2065798;28;20053;-60
2021/03/24 00:58:44;;;;;;;29.00;18.40;;;11.00;52.50;;;;;;2065144;28;20026;-60
2021/03/24 01:00:08;;;;;;;26.00;17.23;;;11.00;52.50;;;;;;2065414;28;20042;-59
2021/03/24 01:01:28;;;;;;;30.65;18.65;;;11.00;52.70;;;;;;2066066;28;20034;-61
2021/03/24 01:02:49;;;;;;;28.52;18.73;;;11.00;52.70;;;;;;2064953;28;20074;-59
2021/03/24 01:04:10;;;;;;;26.52;18.67;;;11.00;52.70;;;;;;2065430;28;20066;-59
2021/03/24 01:05:32;;;;;;;25.80;18.63;;;11.00;52.70;;;;;;2055287;28;20861;-60
2021/03/24 01:06:53;;;;;;;30.83;18.88;;;11.00;52.80;;;;;;2063632;28;20037;-60
2021/03/24 01:08:20;;;;;;;29.58;18.58;;;11.00;52.80;;;;;;2066734;28;20089;-61
2021/03/24 01:09:41;;;;;;;28.33;18.35;;;11.00;52.90;;;;;;2066067;28;20023;-59
2021/03/24 01:11:03;;;;;;;30.30;19.35;;;10.90;52.80;;;;;;2065411;28;20084;-59
2021/03/24 01:12:23;;;;;;;26.80;18.92;;;10.90;52.80;;;;;;2064508;28;20105;-59
2021/03/24 01:13:44;;;;;;;26.73;18.70;;;10.90;52.80;;;;;;2065196;28;20135;-59
2021/03/24 01:15:06;;;;;;;29.65;19.60;;;10.90;52.80;;;;;;2064810;28;20042;-59
2021/03/24 01:16:27;;;;;;;31.38;19.92;;;10.90;52.90;;;;;;2063361;28;20549;-60
2021/03/24 01:17:49;;;;;;;29.67;19.73;;;10.90;52.90;;;;;;2064611;28;20034;-59
2021/03/24 01:19:10;;;;;;;28.23;19.35;;;10.90;53.00;;;;;;2064812;28;20073;-59
2021/03/24 01:20:36;;;;;;;28.65;18.73;;;10.90;53.00;;;;;;2061179;28;20457;-59
2021/03/24 01:21:57;;;;;;;28.23;18.70;;;10.80;53.00;;;;;;2068000;28;20043;-59
2021/03/24 01:23:18;;;;;;;31.40;19.60;;;10.80;53.00;;;;;;2066159;28;20027;-59
2021/03/24 01:24:39;;;;;;;25.85;18.10;;;10.80;53.10;;;;;;2065595;28;20022;-60
2021/03/24 01:25:59;;;;;;;25.50;18.35;;;10.80;53.10;;;;;;2064341;28;20042;-59
2021/03/24 01:27:20;;;;;;;28.48;18.95;;;10.80;53.00;;;;;;2062322;28;20035;-60
2021/03/24 01:28:41;;;;;;;32.42;19.25;;;10.70;53.10;;;;;;2061960;28;20064;-59
2021/03/24 01:30:05;;;;;;;29.85;18.83;;;10.80;53.20;;;;;;2065777;28;20042;-60
2021/03/24 01:31:30;;;;;;;28.95;18.35;;;10.70;53.20;;;;;;2065786;28;20074;-59
2021/03/24 01:32:51;;;;;;;27.25;18.85;;;10.70;53.30;;;;;;2064803;28;20037;-59
2021/03/24 01:34:12;;;;;;;25.88;17.75;;;10.70;53.20;;;;;;2062547;28;20030;-60
2021/03/24 01:35:33;;;;;;;28.92;19.63;;;10.70;53.30;;;;;;2061410;28;20470;-59
2021/03/24 01:36:53;;;;;;;27.20;18.45;;;10.70;53.40;;;;;;2065732;28;20042;-60
2021/03/24 01:38:15;;;;;;;28.30;18.58;;;10.60;53.30;;;;;;2063377;28;20042;-60
2021/03/24 01:39:36;;;;;;;25.05;17.70;;;10.60;53.30;;;;;;2061376;28;20042;-60
2021/03/24 01:41:00;;;;;;;25.67;18.27;;;10.60;53.20;;;;;;2065064;28;20038;-59
2021/03/24 01:42:21;;;;;;;26.85;18.52;;;10.60;53.40;;;;;;2057437;28;20504;-60
2021/03/24 01:43:42;;;;;;;32.05;19.05;;;10.60;53.20;;;;;;2064211;28;20034;-59
2021/03/24 01:45:26;;;;;;;27.60;18.77;;;10.60;53.30;;;;;;2066625;28;20496;-60
2021/03/24 01:46:48;;;;;;;28.50;18.02;;;10.60;53.30;;;;;;2061925;28;20518;-59
2021/03/24 01:48:14;;;;;;;25.08;18.60;;;10.60;53.30;;;;;;2059206;28;20474;-59
2021/03/24 01:49:38;;;;;;;29.15;18.75;;;10.50;53.30;;;;;;2062578;28;20129;-58
2021/03/24 01:51:00;;;;;;;30.98;18.55;;;10.50;53.30;;;;;;2063780;28;20125;-58
2021/03/24 01:52:22;;;;;;;24.40;17.42;;;10.50;53.40;;;;;;2063578;28;20031;-59
2021/03/24 01:53:43;;;;;;;31.02;18.20;;;10.50;53.30;;;;;;2063311;28;21265;-60
2021/03/24 01:55:05;;;;;;;26.60;18.15;;;10.50;53.30;;;;;;2064992;28;20037;-60
2021/03/24 01:56:27;;;;;;;26.67;17.63;;;10.50;53.40;;;;;;2059782;28;20046;-59
2021/03/24 01:57:48;;;;;;;28.83;18.33;;;10.50;53.40;;;;;;2065416;28;20049;-60
2021/03/24 01:59:09;;;;;;;27.63;18.45;;;10.40;53.40;;;;;;2064231;28;20081;-59
2021/03/24 02:00:46;;;;;;;26.40;18.77;;;10.50;53.50;;;;;;2063784;28;20042;-59
2021/03/24 02:02:38;;;;;;;28.63;18.63;;;10.40;53.70;;;;;;2063456;28;20038;-59
2021/03/24 02:03:59;;;;;;;27.30;16.67;;;10.40;53.40;;;;;;2058835;28;20124;-58
2021/03/24 02:05:20;;;;;;;25.92;17.23;;;10.40;53.30;;;;;;2056849;28;20038;-58
2021/03/24 02:06:47;;;;;;;27.27;17.70;;;10.40;53.30;;;;;;2057391;28;20422;-58
2021/03/24 02:08:16;;;;;;;27.85;18.40;;;10.40;53.50;;;;;;2066154;28;20116;-59
2021/03/24 02:09:46;;;;;;;25.20;18.17;;;10.40;53.50;;;;;;2062760;28;20084;-59
2021/03/24 02:11:25;;;;;;;28.88;19.25;;;10.40;53.70;;;;;;2063875;28;20034;-60
2021/03/24 02:12:56;;;;;;;27.17;18.42;;;10.40;53.80;;;;;;2061704;28;20026;-59
2021/03/24 02:14:26;;;;;;;29.85;18.85;;;10.30;53.70;;;;;;2064754;28;20038;-59
2021/03/24 02:16:14;;;;;;;27.25;18.17;;;10.30;53.70;;;;;;2064335;28;20041;-59
2021/03/24 02:17:40;;;;;;;25.95;17.65;;;10.30;53.70;;;;;;2062392;28;20105;-59
2021/03/24 02:19:09;;;;;;;25.10;17.58;;;10.30;53.50;;;;;;2064906;28;20346;-59
2021/03/24 02:20:46;;;;;;;25.35;17.60;;;10.30;53.50;;;;;;2063155;28;20046;-60
2021/03/24 02:22:09;;;;;;;26.67;17.75;;;10.30;53.50;;;;;;2053720;28;20440;-58
2021/03/24 02:23:44;;;;;;;28.30;18.38;;;10.30;53.40;;;;;;2057422;28;20390;-58
2021/03/24 02:25:12;;;;;;;29.15;18.20;;;10.30;53.60;;;;;;2063624;28;20113;-58
2021/03/24 02:26:42;;;;;;;27.80;18.10;;;10.20;53.40;;;;;;2063724;28;20120;-59
2021/03/24 02:28:08;;;;;;;30.40;18.75;;;10.20;53.60;;;;;;2065978;28;20038;-58
2021/03/24 02:29:30;;;;;;;24.45;17.70;;;10.20;53.60;;;;;;2048717;28;20031;-59
2021/03/24 02:30:52;;;;;;;27.33;18.00;;;10.20;53.60;;;;;;2062512;28;20118;-60
2021/03/24 02:32:15;;;;;;;26.35;18.40;;;10.10;53.60;;;;;;2064401;28;20070;-59
2021/03/24 02:33:41;;;;;;;29.35;18.10;;;10.10;53.70;;;;;;2064106;28;20022;-59
2021/03/24 02:35:13;;;;;;;28.27;19.60;;;10.10;53.80;;;;;;2064794;28;20542;-59
2021/03/24 02:36:35;;;;;;;29.27;19.27;;;10.10;53.90;;;;;;2060378;28;20042;-58
2021/03/24 02:37:59;;;;;;;33.00;20.48;;;10.10;54.30;;;;;;2065641;28;20034;-58
2021/03/24 02:39:23;;;;;;;29.83;19.10;;;10.10;53.90;;;;;;2065052;28;20467;-60
2021/03/24 02:40:46;;;;;;;31.65;19.83;;;10.10;54.10;;;;;;2063306;28;20121;-59
2021/03/24 02:42:08;;;;;;;31.42;18.88;;;10.00;54.00;;;;;;2063762;28;20070;-59
2021/03/24 02:43:31;;;;;;;30.65;19.50;;;10.00;53.90;;;;;;2060985;28;20045;-60
2021/03/24 02:44:53;;;;;;;29.45;19.50;;;10.00;54.10;;;;;;2066117;28;20042;-59
2021/03/24 02:46:15;;;;;;;26.27;19.10;;;10.00;54.10;;;;;;2063940;28;20070;-59
2021/03/24 02:47:37;;;;;;;29.95;18.48;;;10.00;54.20;;;;;;2061014;28;20034;-60
2021/03/24 02:49:02;;;;;;;29.95;18.42;;;10.00;54.10;;;;;;2063145;28;20034;-60
2021/03/24 02:50:24;;;;;;;29.00;17.63;;;10.00;54.20;;;;;;2064402;28;20406;-59
2021/03/24 02:51:45;;;;;;;27.35;18.33;;;9.90;54.20;;;;;;2064597;28;20527;-60
2021/03/24 02:53:07;;;;;;;31.23;19.42;;;9.90;54.20;;;;;;2064979;28;20033;-60
2021/03/24 02:54:32;;;;;;;32.83;20.45;;;9.90;54.30;;;;;;2064559;28;20047;-60
2021/03/24 02:55:56;;;;;;;30.92;18.95;;;9.90;54.30;;;;;;2062169;28;20026;-58
2021/03/24 02:57:17;;;;;;;26.90;18.50;;;9.90;54.30;;;;;;2062601;28;20026;-60
2021/03/24 02:58:39;;;;;;;30.02;19.08;;;9.90;54.30;;;;;;2053042;28;20745;-60
2021/03/24 03:00:00;;;;;;;34.65;20.52;;;9.90;54.30;;;;;;2064000;28;20417;-59
2021/03/24 03:01:25;;;;;;;28.88;18.80;;;9.90;54.40;;;;;;2056811;28;20046;-59
2021/03/24 03:02:56;;;;;;;28.65;19.55;;;9.90;54.60;;;;;;2061861;28;20180;-59
2021/03/24 03:04:41;;;;;;;25.90;18.58;;;9.80;54.70;;;;;;2064686;28;20030;-59
2021/03/24 03:06:06;;;;;;;27.27;18.02;;;9.90;54.70;;;;;;2062744;28;20033;-60
2021/03/24 03:07:35;;;;;;;28.60;18.10;;;9.90;54.50;;;;;;2056399;28;20582;-59
2021/03/24 03:09:01;;;;;;;28.67;18.98;;;9.90;54.60;;;;;;2063061;28;20071;-59
2021/03/24 03:10:27;;;;;;;26.50;18.98;;;9.80;54.60;;;;;;2065499;28;20057;-59
2021/03/24 03:11:55;;;;;;;28.27;18.13;;;9.80;54.60;;;;;;2062909;28;20472;-60
2021/03/24 03:13:23;;;;;;;26.70;17.77;;;9.80;55.00;;;;;;2063535;28;20104;-60
2021/03/24 03:15:00;;;;;;;27.08;17.77;;;9.80;54.40;;;;;;2061481;28;20113;-60
2021/03/24 03:16:52;;;;;;;31.17;18.42;;;9.80;54.60;;;;;;2064405;28;20031;-59
2021/03/24 03:18:28;;;;;;;24.00;17.50;;;9.80;54.70;;;;;;2061685;28;20038;-59
2021/03/24 03:19:59;;;;;;;28.23;18.45;;;9.80;54.40;;;;;;2063609;28;20026;-58
2021/03/24 03:21:27;;;;;;;28.80;18.15;;;9.80;54.40;;;;;;2064717;28;20481;-60
2021/03/24 03:22:57;;;;;;;26.95;17.92;;;9.80;54.40;;;;;;2063389;28;20081;-60
2021/03/24 03:24:22;;;;;;;29.35;18.58;;;9.70;54.40;;;;;;2061779;28;20042;-60
2021/03/24 03:25:52;;;;;;;28.48;18.45;;;9.70;54.20;;;;;;2063755;28;20113;-60
2021/03/24 03:27:16;;;;;;;29.67;17.55;;;9.70;54.30;;;;;;2064300;28;20038;-59
2021/03/24 03:28:41;;;;;;;26.15;17.45;;;9.70;54.30;;;;;;2059717;28;20081;-60
2021/03/24 03:30:07;;;;;;;26.70;17.55;;;9.70;54.30;;;;;;2064062;28;20030;-60
2021/03/24 03:31:33;;;;;;;27.77;19.25;;;9.70;54.40;;;;;;2058800;28;20046;-60
2021/03/24 03:32:57;;;;;;;27.83;18.58;;;9.70;54.40;;;;;;2062115;28;20093;-60
2021/03/24 03:34:23;;;;;;;25.52;17.52;;;9.70;54.40;;;;;;2065723;28;21786;-60
2021/03/24 03:35:44;;;;;;;26.17;17.85;;;9.70;54.40;;;;;;2062679;28;20042;-60
2021/03/24 03:37:07;;;;;;;29.75;18.27;;;9.60;54.30;;;;;;2065269;28;20031;-59
2021/03/24 03:38:30;;;;;;;26.20;18.00;;;9.60;54.40;;;;;;2067948;28;20496;-61
2021/03/24 03:39:53;;;;;;;28.10;18.60;;;9.60;54.30;;;;;;2068169;28;20072;-59
2021/03/24 03:41:15;;;;;;;26.13;18.10;;;9.60;54.30;;;;;;2066128;28;20117;-60
2021/03/24 03:42:37;;;;;;;28.13;18.00;;;9.60;54.40;;;;;;2061654;28;20038;-59
2021/03/24 03:43:59;;;;;;;27.80;18.33;;;9.60;54.40;;;;;;2057139;28;20114;-59
2021/03/24 03:45:21;;;;;;;29.48;18.60;;;9.60;54.40;;;;;;2063195;28;20038;-60
2021/03/24 03:46:47;;;;;;;26.70;18.13;;;9.60;54.60;;;;;;2062274;28;20027;-59
2021/03/24 03:48:11;;;;;;;27.33;17.50;;;9.50;54.70;;;;;;2065678;28;20041;-59
2021/03/24 03:49:34;;;;;;;27.20;17.65;;;9.50;54.60;;;;;;2062371;28;20050;-59
2021/03/24 03:50:59;;;;;;;26.45;17.52;;;9.50;54.50;;;;;;2065943;28;20034;-59
2021/03/24 03:52:35;;;;;;;29.50;17.52;;;9.50;54.50;;;;;;2065873;28;20485;-59
2021/03/24 03:54:07;;;;;;;28.42;17.85;;;9.50;54.70;;;;;;2058383;28;20470;-59
2021/03/24 03:55:49;;;;;;;27.88;17.70;;;9.50;54.60;;;;;;2061646;28;20426;-59
2021/03/24 03:57:18;;;;;;;27.60;16.98;;;9.50;54.60;;;;;;2065872;28;20476;-59
2021/03/24 03:58:50;;;;;;;24.92;16.70;;;9.50;54.60;;;;;;2061784;28;20539;-60
2021/03/24 04:00:14;;;;;;;26.13;16.52;;;9.40;54.60;;;;;;2064304;28;20034;-60
2021/03/24 04:01:42;;;;;;;25.65;17.35;;;9.40;54.50;;;;;;2066110;28;20030;-60
2021/03/24 04:03:19;;;;;;;28.10;16.80;;;9.40;54.50;;;;;;2066158;28;20038;-60
2021/03/24 04:04:46;;;;;;;26.08;16.25;;;9.40;54.50;;;;;;2062879;28;20033;-59
2021/03/24 04:06:16;;;;;;;22.15;15.77;;;9.40;54.40;;;;;;2064414;28;20084;-60
2021/03/24 04:07:42;;;;;;;24.55;16.58;;;9.40;54.60;;;;;;2063052;28;20038;-59
2021/03/24 04:09:05;;;;;;;23.40;15.95;;;9.40;54.50;;;;;;2067287;28;20479;-60
2021/03/24 04:10:28;;;;;;;24.40;16.25;;;9.40;54.40;;;;;;2059925;28;20054;-60
2021/03/24 04:11:52;;;;;;;25.02;16.40;;;9.30;54.50;;;;;;2066942;28;20034;-60
2021/03/24 04:13:14;;;;;;;28.63;18.55;;;9.30;54.60;;;;;;2065099;28;20126;-61
2021/03/24 04:14:37;;;;;;;23.67;16.67;;;9.30;54.60;;;;;;2060798;28;20042;-60
2021/03/24 04:15:59;;;;;;;27.10;16.73;;;9.30;54.70;;;;;;2064211;28;20026;-59
2021/03/24 04:17:25;;;;;;;25.80;17.10;;;9.30;54.80;;;;;;2066986;28;20030;-59
2021/03/24 04:18:52;;;;;;;24.92;17.05;;;9.30;54.90;;;;;;2063615;28;20465;-58
2021/03/24 04:20:15;;;;;;;27.30;16.60;;;9.20;54.80;;;;;;2065846;28;20121;-58
2021/03/24 04:21:41;;;;;;;27.02;17.17;;;9.20;54.80;;;;;;2063455;28;20109;-58
2021/03/24 04:23:05;;;;;;;23.80;15.38;;;9.20;54.90;;;;;;2065641;28;20038;-59
2021/03/24 04:24:33;;;;;;;23.17;15.02;;;9.20;54.90;;;;;;2061793;28;20466;-59
2021/03/24 04:26:10;;;;;;;27.38;17.55;;;9.20;55.00;;;;;;2065512;28;20072;-58
2021/03/24 04:27:36;;;;;;;24.73;15.10;;;9.20;55.10;;;;;;2061260;28;20034;-58
2021/03/24 04:29:02;;;;;;;23.13;15.43;;;9.20;54.90;;;;;;2065007;28;20049;-60
2021/03/24 04:30:30;;;;;;;21.02;15.25;;;9.20;54.90;;;;;;2064590;28;20034;-60
2021/03/24 04:31:55;;;;;;;24.60;16.48;;;9.20;55.00;;;;;;2064195;28;20033;-60
2021/03/24 04:33:16;;;;;;;25.67;17.05;;;9.20;55.00;;;;;;2063836;28;20042;-60
2021/03/24 04:34:37;;;;;;;25.10;16.08;;;9.20;55.00;;;;;;2064108;28;20088;-60
2021/03/24 04:36:09;;;;;;;26.30;16.33;;;9.20;55.10;;;;;;2065184;28;20042;-60
2021/03/24 04:37:39;;;;;;;25.42;16.50;;;9.10;55.10;;;;;;2065395;28;20073;-60
2021/03/24 04:39:08;;;;;;;26.35;16.17;;;9.10;55.20;;;;;;2056649;28;20039;-60
2021/03/24 04:41:00;;;;;;;23.77;16.15;;;9.10;55.10;;;;;;2063273;28;20030;-60
2021/03/24 04:42:31;;;;;;;24.60;16.52;;;9.10;55.30;;;;;;2066589;28;20038;-60
2021/03/24 04:44:01;;;;;;;22.35;15.35;;;9.20;55.20;;;;;;2064281;28;20122;-59
2021/03/24 04:45:32;;;;;;;22.15;15.02;;;9.10;55.10;;;;;;2065231;28;20062;-59
2021/03/24 04:47:00;;;;;;;23.02;15.02;;;9.10;55.20;;;;;;2066320;28;20168;-60
2021/03/24 04:48:28;;;;;;;28.80;16.42;;;9.10;55.30;;;;;;2065283;28;20062;-60
2021/03/24 04:50:00;;;;;;;23.70;15.93;;;9.10;55.30;;;;;;2066597;28;20048;-60
2021/03/24 04:51:37;;;;;;;25.67;16.70;;;9.10;55.50;;;;;;2065121;28;20037;-59
2021/03/24 04:53:02;;;;;;;27.52;15.55;;;9.10;55.60;;;;;;2065051;28;20038;-59
2021/03/24 04:54:30;;;;;;;26.70;15.00;;;9.10;55.30;;;;;;2058953;28;20053;-60
2021/03/24 04:55:55;;;;;;;28.65;16.17;;;9.10;55.30;;;;;;2065121;28;20085;-60
2021/03/24 04:57:20;;;;;;;24.33;14.63;;;9.10;55.40;;;;;;2065360;28;20603;-60
2021/03/24 04:58:44;;;;;;;23.50;15.23;;;9.10;55.50;;;;;;2062434;28;20073;-60
2021/03/24 05:00:27;;;;;;;31.67;17.15;;;9.10;55.50;;;;;;2066392;28;20121;-60
2021/03/24 05:01:52;;;;;;;25.63;15.95;;;9.10;55.60;;;;;;2064340;28;20030;-59
2021/03/24 05:03:17;;;;;;;24.45;15.73;;;9.10;55.40;;;;;;2064527;28;20504;-60
2021/03/24 05:04:50;;;;;;;26.25;16.13;;;9.10;55.40;;;;;;2063528;28;20042;-60
2021/03/24 05:06:30;;;;;;;24.90;14.95;;;9.10;55.50;;;;;;2066807;28;20030;-60
2021/03/24 05:08:24;;;;;;;25.35;15.55;;;9.10;55.60;;;;;;2065276;28;20030;-60
2021/03/24 05:09:46;;;;;;;24.38;15.10;;;9.10;55.80;;;;;;2064428;28;20122;-60
2021/03/24 05:11:23;;;;;;;25.13;15.75;;;9.10;55.40;;;;;;2063126;28;20025;-60
2021/03/24 05:13:22;;;;;;;25.15;15.60;;;9.10;56.30;;;;;;2062294;28;20464;-59
2021/03/24 05:14:55;;;;;;;23.48;15.15;;;9.10;55.80;;;;;;2062557;28;20069;-60
2021/03/24 05:16:35;;;;;;;24.83;14.88;;;9.10;55.60;;;;;;2065899;28;20433;-59
2021/03/24 05:17:57;;;;;;;;;;;9.10;55.70;;;;;;2064393;28;20054;-60
2021/03/24 05:19:25;;;;;;;23.63;14.07;;;9.10;55.80;;;;;;2066293;28;20368;-59
2021/03/24 05:21:12;;;;;;;26.30;14.90;;;9.10;55.20;;;;;;2061774;28;20026;-60
2021/03/24 05:22:40;;;;;;;23.00;15.60;;;9.10;55.50;;;;;;2054111;28;20082;-60
2021/03/24 05:24:05;;;;;;;22.63;15.50;;;9.10;55.40;;;;;;2064857;28;20029;-60
2021/03/24 05:25:29;;;;;;;24.60;15.75;;;9.10;55.30;;;;;;2064246;28;20038;-60
2021/03/24 05:26:53;;;;;;;23.58;16.48;;;9.10;55.40;;;;;;2064630;28;20032;-60
2021/03/24 05:28:26;;;;;;;27.38;16.58;;;9.10;55.50;;;;;;2065027;28;20030;-59
2021/03/24 05:29:55;;;;;;;29.08;16.58;;;9.00;55.60;;;;;;2064699;28;20159;-60
2021/03/24 05:31:24;;;;;;;25.70;15.73;;;9.00;55.50;;;;;;2065497;28;20066;-59
2021/03/24 05:32:49;;;;;;;27.50;16.77;;;9.00;55.60;;;;;;2062943;28;20038;-60
2021/03/24 05:34:17;;;;;;;28.73;17.17;;;9.00;55.50;;;;;;2064911;28;20027;-60
2021/03/24 05:35:44;;;;;;;26.80;16.52;;;9.10;55.70;;;;;;2061649;28;20042;-60
2021/03/24 05:37:10;;;;;;;23.50;16.13;;;9.00;55.70;;;;;;2063632;28;20109;-60
2021/03/24 05:38:34;;;;;;;28.77;16.65;;;9.00;55.80;;;;;;2057187;28;20036;-60
2021/03/24 05:40:08;;;;;;;28.30;16.60;;;9.00;55.90;;;;;;2063501;28;20023;-59
2021/03/24 05:41:49;;;;;;;25.60;15.85;;;9.00;56.00;;;;;;2062690;28;20045;-59
2021/03/24 05:43:19;;;;;;;;;;;9.00;56.00;;;;;;2064421;28;20097;-59
2021/03/24 05:45:04;;;;;;;23.88;15.80;;;9.00;56.10;;;;;;2063860;28;19971;-60
2021/03/24 05:46:51;;;;;;;23.90;15.20;;;9.00;55.60;;;;;;2059748;28;20118;-59
2021/03/24 05:48:30;;;;;;;24.65;14.85;;;9.00;55.60;;;;;;2066096;28;20042;-59
2021/03/24 05:50:28;;;;;;;30.85;15.40;;;9.00;55.70;;;;;;2065592;28;20597;-60
2021/03/24 05:52:02;;;;;;;26.98;15.95;;;9.00;55.80;;;;;;2066316;28;20092;-60
2021/03/24 05:54:01;;;;;;;25.35;15.55;;;9.00;55.70;;;;;;2063435;28;20030;-60
2021/03/24 05:55:41;;;;;;;22.95;15.68;;;9.00;55.90;;;;;;2063482;28;20031;-59
2021/03/24 05:57:19;;;;;;;25.10;16.10;;;9.00;55.90;;;;;;2063308;28;20065;-60
2021/03/24 05:59:05;;;;;;;27.42;16.08;;;9.00;55.70;;;;;;2064508;28;20099;-60
2021/03/24 06:00:49;;;;;;;30.73;16.25;;;9.00;56.00;;;;;;2066813;28;20437;-60
2021/03/24 06:02:22;;;;;;;27.80;15.98;;;9.00;56.00;;;;;;2063529;28;20555;-59
2021/03/24 06:04:15;;;;;;;27.23;16.85;;;9.00;56.10;;;;;;2061612;28;20040;-60
2021/03/24 06:05:41;;;;;;;27.67;18.70;;;9.00;56.20;;;;;;2066178;28;20026;-60
2021/03/24 06:07:11;;;;;;;26.08;16.45;;;9.00;56.00;;;;;;2056779;28;20023;-59
2021/03/24 06:08:55;;;;;;;27.48;16.30;;;9.00;56.20;;;;;;2061253;28;20033;-59
2021/03/24 06:10:38;;;;;;;26.15;16.00;;;9.00;56.30;;;;;;2065296;28;20381;-60
2021/03/24 06:12:33;;;;;;;27.17;15.82;;;9.00;56.20;;;;;;2065512;28;20064;-57
2021/03/24 06:14:23;;;;;;;27.38;16.15;;;9.00;56.40;;;;;;2063499;28;20018;-59
2021/03/24 06:16:17;;;;;;;26.80;15.88;;;9.10;56.40;;;;;;2067006;28;20030;-59
2021/03/24 06:17:59;;;;;;;29.42;15.48;;;9.10;56.40;;;;;;2060667;28;20421;-59
2021/03/24 06:19:39;;;;;;;24.38;15.30;;;9.10;56.10;;;;;;2064470;28;20038;-59
2021/03/24 06:21:20;;;;;;;26.10;16.65;;;9.10;56.10;;;;;;2061612;28;20026;-59
2021/03/24 06:22:53;;;;;;;25.17;15.82;;;9.10;56.40;;;;;;2063723;28;20069;-59
2021/03/24 06:24:48;;;;;;;32.30;17.75;;;9.10;56.30;;;;;;2064103;28;20034;-59
2021/03/24 06:26:28;;;;;;;26.70;15.73;;;9.10;56.60;;;;;;2064916;28;20034;-59
2021/03/24 06:28:07;;;;;;;28.50;16.15;;;9.10;56.50;;;;;;2065584;28;20118;-59
2021/03/24 06:29:41;;;;;;;24.52;16.58;;;9.10;56.20;;;;;;2058629;28;20034;-59
2021/03/24 06:31:33;;;;;;;26.35;16.17;;;9.10;56.50;;;;;;2064626;28;20030;-58
2021/03/24 06:33:14;;;;;;;29.05;15.77;;;9.10;56.60;;;;;;2062795;28;20682;-59
2021/03/24 06:35:10;;;;;;;29.00;17.15;;;9.20;56.50;;;;;;2062467;28;20053;-59
2021/03/24 06:36:49;;;;;;;30.48;17.23;;;9.20;56.70;;;;;;2064348;28;20039;-59
2021/03/24 06:38:31;;;;;;;27.33;17.05;;;9.20;56.60;;;;;;2066298;28;20041;-59
2021/03/24 06:40:00;;;;;;;27.75;16.83;;;9.20;56.70;;;;;;2066373;28;20049;-60
2021/03/24 06:41:33;;;;;;;27.02;16.83;;;9.30;56.50;;;;;;2064766;28;20120;-58
2021/03/24 06:43:31;;;;;;;29.73;17.52;;;9.20;56.70;;;;;;2063002;28;20096;-59
2021/03/24 06:45:10;;;;;;;27.58;17.35;;;9.30;56.90;;;;;;2053293;28;20502;-59
2021/03/24 06:46:40;;;;;;;30.55;17.90;;;9.30;56.70;;;;;;2059023;28;20034;-59
2021/03/24 06:48:36;;;;;;;29.23;17.00;;;9.30;56.70;;;;;;2062192;28;20023;-59
2021/03/24 06:50:51;;;;;;;27.38;16.58;;;9.30;56.90;;;;;;2065623;28;20351;-59
2021/03/24 06:52:31;;;;;;;31.08;16.67;;;9.40;57.00;;;;;;2041905;29;20039;-59
2021/03/24 06:54:13;;;;;;;27.67;16.52;;;9.40;56.90;;;;;;2038615;28;20513;-59
2021/03/24 06:56:04;;;;;;;32.60;17.30;;;9.40;56.90;;;;;;2060591;28;20026;-59
2021/03/24 06:57:40;;;;;;;29.52;16.58;;;9.50;56.90;;;;;;2064658;28;20470;-59
2021/03/24 06:59:16;;;;;;;31.42;17.98;;;9.50;56.80;;;;;;2064481;28;20034;-59
2021/03/24 07:01:09;;;;;;;30.40;17.50;;;9.50;56.70;;;;;;2065038;28;20087;-59
2021/03/24 07:03:15;;;;;;;33.35;18.80;;;9.60;57.00;;;;;;2062187;28;20049;-59
2021/03/24 07:05:00;;;;;;;26.58;16.67;;;9.60;57.10;;;;;;2064855;28;20066;-59
2021/03/24 07:06:46;;;;;;;30.25;16.90;;;9.60;57.00;;;;;;2064221;28;20113;-59
2021/03/24 07:08:23;;;;;;;27.48;17.10;;;9.70;57.10;;;;;;2065296;28;20123;-59
2021/03/24 07:10:03;;;;;;;32.60;17.85;;;9.70;57.10;;;;;;2065668;28;20042;-59
2021/03/24 07:11:56;;;;;;;31.30;16.90;;;9.70;57.00;;;;;;2066965;28;20058;-59
2021/03/24 07:13:45;;;;;;;27.95;17.05;;;9.70;57.10;;;;;;2065941;28;20042;-59
2021/03/24 07:15:17;;;;;;;28.75;17.65;;;9.80;57.00;;;;;;2067974;28;20031;-59
2021/03/24 07:17:08;;;;;;;30.90;18.65;;;9.80;56.90;;;;;;2065769;28;20019;-59
2021/03/24 07:18:54;;;;;;;32.13;17.30;;;9.80;56.90;;;;;;2065580;28;20034;-59
2021/03/24 07:20:25;;;;;;;29.42;16.60;;;9.90;57.00;;;;;;2065179;28;20030;-59
2021/03/24 07:21:51;;;;;;;30.23;16.77;;;9.90;56.90;;;;;;2065698;28;20049;-60
2021/03/24 07:23:34;;;;;;;31.70;18.33;;;10.00;56.80;;;;;;2065361;28;20525;-59
2021/03/24 07:25:11;;;;;;;31.00;18.38;;;10.00;56.90;;;;;;2066531;28;20064;-59
2021/03/24 07:26:47;;;;;;;31.75;18.30;;;10.00;56.70;;;;;;2065701;28;20030;-59
2021/03/24 07:28:23;;;;;;;29.80;17.17;;;10.10;56.70;;;;;;2065583;28;20053;-59
2021/03/24 07:29:51;;;;;;;31.65;17.60;;;10.10;56.70;;;;;;2064391;28;20026;-58
2021/03/24 07:31:18;;;;;;;30.35;17.23;;;10.20;56.80;;;;;;2064277;28;20034;-60
2021/03/24 07:32:58;;;;;;;31.02;17.08;;;10.20;56.70;;;;;;2064940;28;20034;-59
2021/03/24 07:35:03;;;;;;;24.35;16.55;;;10.20;56.70;;;;;;2065770;28;20073;-59
2021/03/24 07:36:27;;;;;;;29.85;17.80;;;10.30;56.80;;;;;;2062361;28;20031;-59
2021/03/24 07:38:13;;;;;;;32.33;18.63;;;10.30;56.60;;;;;;2062772;28;20063;-59